sensor_id;sensor_type;location;lat;lon;timestamp;P1;durP1;ratioP1;P2;durP2;ratioP2
4957;SDS011;2494;51.872;9.688;2023-02-20T00:00:18;7.27;;;6.37;;
4957;SDS011;2494;51.872;9.688;2023-02-20T00:03:05;8.40;;;7.10;;
4957;SDS011;2494;51.872;9.688;2023-02-20T00:05:50;8.57;;;7.77;;
4957;SDS011;2494;51.872;9.688;2023-02-20T00:08:35;8.07;;;7.27;;
4957;SDS011;2494;51.872;9.688;2023-02-20T00:11:21;6.70;;;6.10;;
4957;SDS011;2494;51.872;9.688;2023-02-20T00:14:06;8.17;;;7.37;;
4957;SDS011;2494;51.872;9.688;2023-02-20T00:16:50;9.00;;;8.10;;
4957;SDS011;2494;51.872;9.688;2023-02-20T00:19:37;9.17;;;8.07;;
4957;SDS011;2494;51.872;9.688;2023-02-20T00:22:22;8.03;;;7.33;;
4957;SDS011;2494;51.872;9.688;2023-02-20T00:25:08;7.93;;;7.13;;
4957;SDS011;2494;51.872;9.688;2023-02-20T00:27:53;7.90;;;7.13;;
4957;SDS011;2494;51.872;9.688;2023-02-20T00:30:44;7.80;;;6.93;;
4957;SDS011;2494;51.872;9.688;2023-02-20T00:33:29;6.00;;;5.50;;
4957;SDS011;2494;51.872;9.688;2023-02-20T00:36:17;6.63;;;6.10;;
4957;SDS011;2494;51.872;9.688;2023-02-20T00:39:02;8.90;;;7.03;;
4957;SDS011;2494;51.872;9.688;2023-02-20T00:41:47;6.10;;;5.50;;
4957;SDS011;2494;51.872;9.688;2023-02-20T00:44:32;6.07;;;5.57;;
4957;SDS011;2494;51.872;9.688;2023-02-20T00:47:17;7.30;;;6.60;;
4957;SDS011;2494;51.872;9.688;2023-02-20T00:50:02;8.30;;;7.50;;
4957;SDS011;2494;51.872;9.688;2023-02-20T00:52:49;7.60;;;6.90;;
4957;SDS011;2494;51.872;9.688;2023-02-20T00:55:34;8.67;;;7.77;;
4957;SDS011;2494;51.872;9.688;2023-02-20T00:58:19;8.30;;;7.50;;
4957;SDS011;2494;51.872;9.688;2023-02-20T01:01:04;9.33;;;8.00;;
4957;SDS011;2494;51.872;9.688;2023-02-20T01:03:50;8.80;;;8.00;;
4957;SDS011;2494;51.872;9.688;2023-02-20T01:06:34;11.50;;;9.37;;
4957;SDS011;2494;51.872;9.688;2023-02-20T01:09:21;11.57;;;9.30;;
4957;SDS011;2494;51.872;9.688;2023-02-20T01:12:06;10.57;;;9.47;;
4957;SDS011;2494;51.872;9.688;2023-02-20T01:14:51;12.77;;;10.17;;
4957;SDS011;2494;51.872;9.688;2023-02-20T01:17:36;14.10;;;12.20;;
4957;SDS011;2494;51.872;9.688;2023-02-20T01:20:21;17.50;;;13.70;;
4957;SDS011;2494;51.872;9.688;2023-02-20T01:23:06;18.07;;;13.57;;
4957;SDS011;2494;51.872;9.688;2023-02-20T01:25:52;19.03;;;15.67;;
4957;SDS011;2494;51.872;9.688;2023-02-20T01:28:37;19.13;;;14.40;;
4957;SDS011;2494;51.872;9.688;2023-02-20T01:31:23;22.63;;;16.87;;
4957;SDS011;2494;51.872;9.688;2023-02-20T01:34:08;21.63;;;16.93;;
4957;SDS011;2494;51.872;9.688;2023-02-20T01:36:53;23.70;;;18.57;;
4957;SDS011;2494;51.872;9.688;2023-02-20T01:39:38;26.43;;;18.10;;
4957;SDS011;2494;51.872;9.688;2023-02-20T01:42:26;23.17;;;17.90;;
4957;SDS011;2494;51.872;9.688;2023-02-20T01:45:26;24.40;;;18.50;;
4957;SDS011;2494;51.872;9.688;2023-02-20T01:48:17;24.47;;;19.70;;
4957;SDS011;2494;51.872;9.688;2023-02-20T01:51:03;28.60;;;21.20;;
4957;SDS011;2494;51.872;9.688;2023-02-20T01:53:48;29.83;;;23.13;;
4957;SDS011;2494;51.872;9.688;2023-02-20T01:56:33;25.70;;;20.60;;
4957;SDS011;2494;51.872;9.688;2023-02-20T01:59:19;28.93;;;20.10;;
4957;SDS011;2494;51.872;9.688;2023-02-20T02:02:05;23.37;;;19.47;;
4957;SDS011;2494;51.872;9.688;2023-02-20T02:04:50;23.83;;;19.20;;
4957;SDS011;2494;51.872;9.688;2023-02-20T02:07:36;25.80;;;18.87;;
4957;SDS011;2494;51.872;9.688;2023-02-20T02:10:22;27.03;;;19.23;;
4957;SDS011;2494;51.872;9.688;2023-02-20T02:13:09;23.13;;;17.57;;
4957;SDS011;2494;51.872;9.688;2023-02-20T02:16:00;24.57;;;17.13;;
4957;SDS011;2494;51.872;9.688;2023-02-20T02:18:51;24.23;;;17.70;;
4957;SDS011;2494;51.872;9.688;2023-02-20T02:21:55;23.30;;;17.17;;
4957;SDS011;2494;51.872;9.688;2023-02-20T02:24:57;20.43;;;15.23;;
4957;SDS011;2494;51.872;9.688;2023-02-20T02:27:53;19.47;;;15.63;;
4957;SDS011;2494;51.872;9.688;2023-02-20T02:34:05;20.40;;;16.50;;
4957;SDS011;2494;51.872;9.688;2023-02-20T02:36:59;21.40;;;15.30;;
4957;SDS011;2494;51.872;9.688;2023-02-20T02:39:47;19.83;;;15.03;;
4957;SDS011;2494;51.872;9.688;2023-02-20T02:42:36;18.20;;;14.40;;
4957;SDS011;2494;51.872;9.688;2023-02-20T02:45:26;20.83;;;15.07;;
4957;SDS011;2494;51.872;9.688;2023-02-20T02:48:15;19.70;;;14.43;;
4957;SDS011;2494;51.872;9.688;2023-02-20T02:51:02;18.30;;;13.53;;
4957;SDS011;2494;51.872;9.688;2023-02-20T02:54:07;21.50;;;15.67;;
4957;SDS011;2494;51.872;9.688;2023-02-20T02:56:53;17.50;;;13.57;;
4957;SDS011;2494;51.872;9.688;2023-02-20T02:59:58;17.67;;;13.70;;
4957;SDS011;2494;51.872;9.688;2023-02-20T03:02:46;16.40;;;13.70;;
4957;SDS011;2494;51.872;9.688;2023-02-20T03:05:35;19.33;;;14.17;;
4957;SDS011;2494;51.872;9.688;2023-02-20T03:08:25;19.20;;;14.57;;
4957;SDS011;2494;51.872;9.688;2023-02-20T03:11:17;16.47;;;13.17;;
4957;SDS011;2494;51.872;9.688;2023-02-20T03:14:04;17.80;;;13.87;;
4957;SDS011;2494;51.872;9.688;2023-02-20T03:17:08;13.80;;;11.20;;
4957;SDS011;2494;51.872;9.688;2023-02-20T03:19:55;14.03;;;10.93;;
4957;SDS011;2494;51.872;9.688;2023-02-20T03:22:41;12.97;;;10.70;;
4957;SDS011;2494;51.872;9.688;2023-02-20T03:25:29;13.27;;;10.03;;
4957;SDS011;2494;51.872;9.688;2023-02-20T03:28:16;13.93;;;10.80;;
4957;SDS011;2494;51.872;9.688;2023-02-20T03:31:03;12.80;;;11.40;;
4957;SDS011;2494;51.872;9.688;2023-02-20T03:33:52;11.93;;;8.67;;
4957;SDS011;2494;51.872;9.688;2023-02-20T03:36:58;9.27;;;8.17;;
4957;SDS011;2494;51.872;9.688;2023-02-20T03:40:04;10.90;;;8.20;;
4957;SDS011;2494;51.872;9.688;2023-02-20T03:43:09;12.07;;;8.50;;
4957;SDS011;2494;51.872;9.688;2023-02-20T03:46:10;8.63;;;7.30;;
4957;SDS011;2494;51.872;9.688;2023-02-20T03:48:57;9.30;;;7.27;;
4957;SDS011;2494;51.872;9.688;2023-02-20T03:51:44;9.97;;;7.67;;
4957;SDS011;2494;51.872;9.688;2023-02-20T03:54:29;11.37;;;7.87;;
4957;SDS011;2494;51.872;9.688;2023-02-20T03:57:17;11.43;;;8.37;;
4957;SDS011;2494;51.872;9.688;2023-02-20T04:00:04;10.87;;;7.57;;
4957;SDS011;2494;51.872;9.688;2023-02-20T04:02:54;13.33;;;8.93;;
4957;SDS011;2494;51.872;9.688;2023-02-20T04:05:43;14.20;;;9.67;;
4957;SDS011;2494;51.872;9.688;2023-02-20T04:08:30;11.87;;;8.63;;
4957;SDS011;2494;51.872;9.688;2023-02-20T04:11:22;14.03;;;9.50;;
4957;SDS011;2494;51.872;9.688;2023-02-20T04:14:08;12.83;;;8.67;;
4957;SDS011;2494;51.872;9.688;2023-02-20T04:16:54;10.43;;;8.40;;
4957;SDS011;2494;51.872;9.688;2023-02-20T04:19:41;14.30;;;8.97;;
4957;SDS011;2494;51.872;9.688;2023-02-20T04:22:27;16.90;;;9.30;;
4957;SDS011;2494;51.872;9.688;2023-02-20T04:25:15;12.03;;;8.37;;
4957;SDS011;2494;51.872;9.688;2023-02-20T04:28:01;14.40;;;9.37;;
4957;SDS011;2494;51.872;9.688;2023-02-20T04:30:50;10.87;;;8.43;;
4957;SDS011;2494;51.872;9.688;2023-02-20T04:33:35;15.23;;;9.10;;
4957;SDS011;2494;51.872;9.688;2023-02-20T04:36:22;13.30;;;8.87;;
4957;SDS011;2494;51.872;9.688;2023-02-20T04:39:08;10.47;;;8.57;;
4957;SDS011;2494;51.872;9.688;2023-02-20T04:41:53;13.73;;;8.10;;
4957;SDS011;2494;51.872;9.688;2023-02-20T04:44:38;10.90;;;9.30;;
4957;SDS011;2494;51.872;9.688;2023-02-20T04:47:23;12.60;;;9.10;;
4957;SDS011;2494;51.872;9.688;2023-02-20T04:50:08;9.40;;;7.30;;
4957;SDS011;2494;51.872;9.688;2023-02-20T04:52:57;10.67;;;9.50;;
4957;SDS011;2494;51.872;9.688;2023-02-20T04:55:42;13.07;;;9.30;;
4957;SDS011;2494;51.872;9.688;2023-02-20T04:58:27;15.77;;;9.80;;
4957;SDS011;2494;51.872;9.688;2023-02-20T05:01:12;11.57;;;8.80;;
4957;SDS011;2494;51.872;9.688;2023-02-20T05:03:57;10.63;;;9.30;;
4957;SDS011;2494;51.872;9.688;2023-02-20T05:06:43;13.00;;;9.20;;
4957;SDS011;2494;51.872;9.688;2023-02-20T05:09:30;11.10;;;8.73;;
4957;SDS011;2494;51.872;9.688;2023-02-20T05:12:15;15.40;;;10.40;;
4957;SDS011;2494;51.872;9.688;2023-02-20T05:15:01;13.23;;;10.07;;
4957;SDS011;2494;51.872;9.688;2023-02-20T05:17:46;11.00;;;8.70;;
4957;SDS011;2494;51.872;9.688;2023-02-20T05:20:31;14.23;;;9.13;;
4957;SDS011;2494;51.872;9.688;2023-02-20T05:23:34;10.47;;;8.43;;
4957;SDS011;2494;51.872;9.688;2023-02-20T05:26:20;14.97;;;8.87;;
4957;SDS011;2494;51.872;9.688;2023-02-20T05:29:06;17.67;;;9.60;;
4957;SDS011;2494;51.872;9.688;2023-02-20T05:31:52;11.30;;;9.17;;
4957;SDS011;2494;51.872;9.688;2023-02-20T05:34:38;13.60;;;9.23;;
4957;SDS011;2494;51.872;9.688;2023-02-20T05:37:23;15.67;;;9.33;;
4957;SDS011;2494;51.872;9.688;2023-02-20T05:40:09;12.10;;;8.80;;
4957;SDS011;2494;51.872;9.688;2023-02-20T05:42:56;13.00;;;8.57;;
4957;SDS011;2494;51.872;9.688;2023-02-20T05:45:41;13.23;;;9.00;;
4957;SDS011;2494;51.872;9.688;2023-02-20T05:48:26;13.07;;;8.47;;
4957;SDS011;2494;51.872;9.688;2023-02-20T05:51:17;10.93;;;7.93;;
4957;SDS011;2494;51.872;9.688;2023-02-20T05:54:03;11.40;;;8.70;;
4957;SDS011;2494;51.872;9.688;2023-02-20T05:56:49;14.67;;;9.33;;
4957;SDS011;2494;51.872;9.688;2023-02-20T05:59:36;12.40;;;8.50;;
4957;SDS011;2494;51.872;9.688;2023-02-20T06:02:24;11.43;;;9.50;;
4957;SDS011;2494;51.872;9.688;2023-02-20T06:05:09;11.90;;;7.87;;
4957;SDS011;2494;51.872;9.688;2023-02-20T06:07:54;12.70;;;8.27;;
4957;SDS011;2494;51.872;9.688;2023-02-20T06:10:40;13.50;;;10.40;;
4957;SDS011;2494;51.872;9.688;2023-02-20T06:13:25;13.90;;;9.03;;
4957;SDS011;2494;51.872;9.688;2023-02-20T06:16:12;10.83;;;8.40;;
4957;SDS011;2494;51.872;9.688;2023-02-20T06:18:57;13.70;;;9.53;;
4957;SDS011;2494;51.872;9.688;2023-02-20T06:21:44;14.23;;;8.57;;
4957;SDS011;2494;51.872;9.688;2023-02-20T06:24:29;13.67;;;9.67;;
4957;SDS011;2494;51.872;9.688;2023-02-20T06:27:15;11.23;;;8.33;;
4957;SDS011;2494;51.872;9.688;2023-02-20T06:30:01;9.40;;;7.60;;
4957;SDS011;2494;51.872;9.688;2023-02-20T06:32:47;9.67;;;7.63;;
4957;SDS011;2494;51.872;9.688;2023-02-20T06:35:32;12.80;;;8.00;;
4957;SDS011;2494;51.872;9.688;2023-02-20T06:38:18;8.57;;;7.20;;
4957;SDS011;2494;51.872;9.688;2023-02-20T06:41:03;11.27;;;8.17;;
4957;SDS011;2494;51.872;9.688;2023-02-20T06:43:48;10.77;;;7.97;;
4957;SDS011;2494;51.872;9.688;2023-02-20T06:46:33;10.63;;;8.30;;
4957;SDS011;2494;51.872;9.688;2023-02-20T06:49:21;10.30;;;6.57;;
4957;SDS011;2494;51.872;9.688;2023-02-20T06:52:07;9.93;;;7.63;;
4957;SDS011;2494;51.872;9.688;2023-02-20T06:54:52;9.03;;;7.33;;
4957;SDS011;2494;51.872;9.688;2023-02-20T06:57:38;9.07;;;7.57;;
4957;SDS011;2494;51.872;9.688;2023-02-20T07:00:23;9.83;;;7.00;;
4957;SDS011;2494;51.872;9.688;2023-02-20T07:03:08;7.70;;;6.10;;
4957;SDS011;2494;51.872;9.688;2023-02-20T07:05:55;7.50;;;6.70;;
4957;SDS011;2494;51.872;9.688;2023-02-20T07:08:40;6.50;;;5.87;;
4957;SDS011;2494;51.872;9.688;2023-02-20T07:11:25;11.53;;;6.57;;
4957;SDS011;2494;51.872;9.688;2023-02-20T07:14:10;7.57;;;6.33;;
4957;SDS011;2494;51.872;9.688;2023-02-20T07:16:55;6.40;;;5.27;;
4957;SDS011;2494;51.872;9.688;2023-02-20T07:19:40;7.43;;;5.37;;
4957;SDS011;2494;51.872;9.688;2023-02-20T07:22:26;10.80;;;6.10;;
4957;SDS011;2494;51.872;9.688;2023-02-20T07:25:11;9.40;;;6.80;;
4957;SDS011;2494;51.872;9.688;2023-02-20T07:27:56;6.37;;;4.83;;
4957;SDS011;2494;51.872;9.688;2023-02-20T07:30:41;8.83;;;5.80;;
4957;SDS011;2494;51.872;9.688;2023-02-20T07:33:26;7.17;;;5.50;;
4957;SDS011;2494;51.872;9.688;2023-02-20T07:36:12;5.97;;;5.27;;
4957;SDS011;2494;51.872;9.688;2023-02-20T07:38:59;6.10;;;4.57;;
4957;SDS011;2494;51.872;9.688;2023-02-20T07:41:45;8.13;;;5.70;;
4957;SDS011;2494;51.872;9.688;2023-02-20T07:44:30;5.93;;;5.23;;
4957;SDS011;2494;51.872;9.688;2023-02-20T07:47:16;5.50;;;4.30;;
4957;SDS011;2494;51.872;9.688;2023-02-20T07:50:01;5.67;;;5.07;;
4957;SDS011;2494;51.872;9.688;2023-02-20T07:52:46;11.33;;;5.30;;
4957;SDS011;2494;51.872;9.688;2023-02-20T07:55:32;6.50;;;4.73;;
4957;SDS011;2494;51.872;9.688;2023-02-20T07:58:17;6.90;;;5.70;;
4957;SDS011;2494;51.872;9.688;2023-02-20T08:01:03;5.90;;;4.40;;
4957;SDS011;2494;51.872;9.688;2023-02-20T08:03:48;6.00;;;4.70;;
4957;SDS011;2494;51.872;9.688;2023-02-20T08:06:33;6.83;;;5.33;;
4957;SDS011;2494;51.872;9.688;2023-02-20T08:09:18;8.73;;;4.93;;
4957;SDS011;2494;51.872;9.688;2023-02-20T08:12:05;7.60;;;5.70;;
4957;SDS011;2494;51.872;9.688;2023-02-20T08:14:52;7.37;;;5.47;;
4957;SDS011;2494;51.872;9.688;2023-02-20T08:17:37;5.00;;;4.50;;
4957;SDS011;2494;51.872;9.688;2023-02-20T08:20:23;8.00;;;6.20;;
4957;SDS011;2494;51.872;9.688;2023-02-20T08:23:12;6.80;;;3.73;;
4957;SDS011;2494;51.872;9.688;2023-02-20T08:26:01;7.53;;;5.53;;
4957;SDS011;2494;51.872;9.688;2023-02-20T08:28:48;6.97;;;4.90;;
4957;SDS011;2494;51.872;9.688;2023-02-20T08:31:34;4.90;;;4.13;;
4957;SDS011;2494;51.872;9.688;2023-02-20T08:34:20;5.33;;;4.83;;
4957;SDS011;2494;51.872;9.688;2023-02-20T08:37:05;9.00;;;5.77;;
4957;SDS011;2494;51.872;9.688;2023-02-20T08:39:52;5.93;;;4.00;;
4957;SDS011;2494;51.872;9.688;2023-02-20T08:42:37;4.57;;;4.17;;
4957;SDS011;2494;51.872;9.688;2023-02-20T08:45:24;5.17;;;3.80;;
4957;SDS011;2494;51.872;9.688;2023-02-20T08:48:12;4.63;;;4.27;;
4957;SDS011;2494;51.872;9.688;2023-02-20T08:50:58;4.30;;;3.90;;
4957;SDS011;2494;51.872;9.688;2023-02-20T08:53:43;5.30;;;4.80;;
4957;SDS011;2494;51.872;9.688;2023-02-20T08:56:28;5.80;;;5.40;;
4957;SDS011;2494;51.872;9.688;2023-02-20T08:59:14;6.87;;;4.87;;
4957;SDS011;2494;51.872;9.688;2023-02-20T09:02:02;5.43;;;3.93;;
4957;SDS011;2494;51.872;9.688;2023-02-20T09:04:50;5.20;;;4.60;;
4957;SDS011;2494;51.872;9.688;2023-02-20T09:07:35;4.87;;;4.53;;
4957;SDS011;2494;51.872;9.688;2023-02-20T09:10:20;4.90;;;4.23;;
4957;SDS011;2494;51.872;9.688;2023-02-20T09:13:05;8.50;;;4.77;;
4957;SDS011;2494;51.872;9.688;2023-02-20T09:15:50;10.50;;;6.40;;
4957;SDS011;2494;51.872;9.688;2023-02-20T09:18:37;5.50;;;4.93;;
4957;SDS011;2494;51.872;9.688;2023-02-20T09:21:22;6.60;;;4.87;;
4957;SDS011;2494;51.872;9.688;2023-02-20T09:24:07;8.87;;;6.93;;
4957;SDS011;2494;51.872;9.688;2023-02-20T09:26:53;7.93;;;7.23;;
4957;SDS011;2494;51.872;9.688;2023-02-20T09:29:38;7.60;;;6.80;;
4957;SDS011;2494;51.872;9.688;2023-02-20T09:32:25;10.03;;;7.87;;
4957;SDS011;2494;51.872;9.688;2023-02-20T09:35:15;7.53;;;5.67;;
4957;SDS011;2494;51.872;9.688;2023-02-20T09:38:01;7.13;;;6.43;;
4957;SDS011;2494;51.872;9.688;2023-02-20T09:40:47;8.37;;;7.63;;
4957;SDS011;2494;51.872;9.688;2023-02-20T09:43:38;7.60;;;6.90;;
4957;SDS011;2494;51.872;9.688;2023-02-20T09:46:26;8.73;;;6.43;;
4957;SDS011;2494;51.872;9.688;2023-02-20T09:49:11;9.10;;;6.20;;
4957;SDS011;2494;51.872;9.688;2023-02-20T09:52:00;9.60;;;7.00;;
4957;SDS011;2494;51.872;9.688;2023-02-20T09:54:46;6.20;;;5.60;;
4957;SDS011;2494;51.872;9.688;2023-02-20T09:57:33;8.63;;;7.73;;
4957;SDS011;2494;51.872;9.688;2023-02-20T10:00:21;8.70;;;7.83;;
4957;SDS011;2494;51.872;9.688;2023-02-20T10:03:12;9.20;;;8.27;;
4957;SDS011;2494;51.872;9.688;2023-02-20T10:05:59;8.27;;;7.30;;
4957;SDS011;2494;51.872;9.688;2023-02-20T10:08:47;12.13;;;9.20;;
4957;SDS011;2494;51.872;9.688;2023-02-20T10:11:43;8.97;;;7.50;;
4957;SDS011;2494;51.872;9.688;2023-02-20T10:14:37;9.90;;;9.00;;
4957;SDS011;2494;51.872;9.688;2023-02-20T10:17:29;9.17;;;8.37;;
4957;SDS011;2494;51.872;9.688;2023-02-20T10:20:19;9.67;;;8.67;;
4957;SDS011;2494;51.872;9.688;2023-02-20T10:23:11;14.40;;;9.87;;
4957;SDS011;2494;51.872;9.688;2023-02-20T10:26:00;11.30;;;10.00;;
4957;SDS011;2494;51.872;9.688;2023-02-20T10:28:46;14.23;;;10.07;;
4957;SDS011;2494;51.872;9.688;2023-02-20T10:31:32;10.13;;;8.97;;
4957;SDS011;2494;51.872;9.688;2023-02-20T10:34:21;13.13;;;10.00;;
4957;SDS011;2494;51.872;9.688;2023-02-20T10:37:07;14.10;;;10.20;;
4957;SDS011;2494;51.872;9.688;2023-02-20T10:39:55;13.67;;;11.57;;
4957;SDS011;2494;51.872;9.688;2023-02-20T10:42:45;12.27;;;11.03;;
4957;SDS011;2494;51.872;9.688;2023-02-20T10:45:35;15.77;;;10.70;;
4957;SDS011;2494;51.872;9.688;2023-02-20T10:48:22;13.00;;;11.70;;
4957;SDS011;2494;51.872;9.688;2023-02-20T10:51:08;11.97;;;9.47;;
4957;SDS011;2494;51.872;9.688;2023-02-20T10:53:57;14.17;;;10.10;;
4957;SDS011;2494;51.872;9.688;2023-02-20T10:56:46;13.73;;;11.50;;
4957;SDS011;2494;51.872;9.688;2023-02-20T10:59:37;13.47;;;10.23;;
4957;SDS011;2494;51.872;9.688;2023-02-20T11:02:26;12.67;;;11.37;;
4957;SDS011;2494;51.872;9.688;2023-02-20T11:05:13;12.17;;;10.93;;
4957;SDS011;2494;51.872;9.688;2023-02-20T11:08:00;11.00;;;10.00;;
4957;SDS011;2494;51.872;9.688;2023-02-20T11:10:46;10.20;;;9.30;;
4957;SDS011;2494;51.872;9.688;2023-02-20T11:13:31;11.23;;;9.90;;
4957;SDS011;2494;51.872;9.688;2023-02-20T11:16:21;12.63;;;10.63;;
4957;SDS011;2494;51.872;9.688;2023-02-20T11:19:09;15.77;;;11.90;;
4957;SDS011;2494;51.872;9.688;2023-02-20T11:21:56;10.77;;;9.67;;
4957;SDS011;2494;51.872;9.688;2023-02-20T11:24:41;11.80;;;10.30;;
4957;SDS011;2494;51.872;9.688;2023-02-20T11:27:26;10.27;;;9.37;;
4957;SDS011;2494;51.872;9.688;2023-02-20T11:30:21;11.43;;;10.30;;
4957;SDS011;2494;51.872;9.688;2023-02-20T11:33:12;10.10;;;9.10;;
4957;SDS011;2494;51.872;9.688;2023-02-20T11:35:58;9.70;;;8.80;;
4957;SDS011;2494;51.872;9.688;2023-02-20T11:38:56;11.37;;;10.33;;
4957;SDS011;2494;51.872;9.688;2023-02-20T11:41:42;11.43;;;9.37;;
4957;SDS011;2494;51.872;9.688;2023-02-20T11:44:27;12.00;;;9.20;;
4957;SDS011;2494;51.872;9.688;2023-02-20T11:47:20;14.63;;;9.47;;
4957;SDS011;2494;51.872;9.688;2023-02-20T11:50:12;10.60;;;9.50;;
4957;SDS011;2494;51.872;9.688;2023-02-20T11:52:59;10.03;;;9.07;;
4957;SDS011;2494;51.872;9.688;2023-02-20T11:55:44;11.97;;;8.90;;
4957;SDS011;2494;51.872;9.688;2023-02-20T11:58:30;9.97;;;9.07;;
4957;SDS011;2494;51.872;9.688;2023-02-20T12:01:26;14.73;;;9.80;;
4957;SDS011;2494;51.872;9.688;2023-02-20T12:04:16;11.70;;;9.70;;
4957;SDS011;2494;51.872;9.688;2023-02-20T12:07:09;12.47;;;9.73;;
4957;SDS011;2494;51.872;9.688;2023-02-20T12:10:02;14.37;;;12.13;;
4957;SDS011;2494;51.872;9.688;2023-02-20T12:12:49;11.60;;;10.00;;
4957;SDS011;2494;51.872;9.688;2023-02-20T12:15:34;14.13;;;10.57;;
4957;SDS011;2494;51.872;9.688;2023-02-20T12:18:24;12.90;;;9.80;;
4957;SDS011;2494;51.872;9.688;2023-02-20T12:21:17;12.53;;;9.97;;
4957;SDS011;2494;51.872;9.688;2023-02-20T12:24:15;12.40;;;10.90;;
4957;SDS011;2494;51.872;9.688;2023-02-20T12:27:08;14.40;;;10.90;;
4957;SDS011;2494;51.872;9.688;2023-02-20T12:29:59;12.70;;;9.73;;
4957;SDS011;2494;51.872;9.688;2023-02-20T12:32:49;13.47;;;9.53;;
4957;SDS011;2494;51.872;9.688;2023-02-20T12:35:40;17.13;;;10.67;;
4957;SDS011;2494;51.872;9.688;2023-02-20T12:38:36;12.53;;;9.70;;
4957;SDS011;2494;51.872;9.688;2023-02-20T12:41:26;15.27;;;12.20;;
4957;SDS011;2494;51.872;9.688;2023-02-20T12:44:19;16.77;;;11.93;;
4957;SDS011;2494;51.872;9.688;2023-02-20T12:47:15;15.30;;;11.87;;
4957;SDS011;2494;51.872;9.688;2023-02-20T12:50:11;16.03;;;12.73;;
4957;SDS011;2494;51.872;9.688;2023-02-20T12:53:01;14.87;;;12.20;;
4957;SDS011;2494;51.872;9.688;2023-02-20T12:55:50;20.73;;;12.23;;
4957;SDS011;2494;51.872;9.688;2023-02-20T12:58:41;14.77;;;12.60;;
4957;SDS011;2494;51.872;9.688;2023-02-20T13:01:29;15.67;;;11.97;;
4957;SDS011;2494;51.872;9.688;2023-02-20T13:04:18;15.47;;;11.63;;
4957;SDS011;2494;51.872;9.688;2023-02-20T13:07:05;20.07;;;13.13;;
4957;SDS011;2494;51.872;9.688;2023-02-20T13:09:55;20.57;;;10.70;;
4957;SDS011;2494;51.872;9.688;2023-02-20T13:12:42;19.03;;;14.27;;
4957;SDS011;2494;51.872;9.688;2023-02-20T13:15:31;18.83;;;14.47;;
4957;SDS011;2494;51.872;9.688;2023-02-20T13:18:18;14.80;;;12.07;;
4957;SDS011;2494;51.872;9.688;2023-02-20T13:21:09;19.90;;;13.10;;
4957;SDS011;2494;51.872;9.688;2023-02-20T13:26:56;20.67;;;13.43;;
4957;SDS011;2494;51.872;9.688;2023-02-20T13:29:55;17.53;;;12.53;;
4957;SDS011;2494;51.872;9.688;2023-02-20T13:32:43;21.27;;;15.10;;
4957;SDS011;2494;51.872;9.688;2023-02-20T13:35:32;17.07;;;13.90;;
4957;SDS011;2494;51.872;9.688;2023-02-20T13:38:19;23.70;;;15.80;;
4957;SDS011;2494;51.872;9.688;2023-02-20T13:41:05;22.17;;;14.07;;
4957;SDS011;2494;51.872;9.688;2023-02-20T13:43:51;21.73;;;15.00;;
4957;SDS011;2494;51.872;9.688;2023-02-20T13:49:54;25.23;;;15.37;;
4957;SDS011;2494;51.872;9.688;2023-02-20T13:52:40;19.53;;;15.20;;
4957;SDS011;2494;51.872;9.688;2023-02-20T13:55:29;25.50;;;17.13;;
4957;SDS011;2494;51.872;9.688;2023-02-20T13:58:14;25.00;;;15.17;;
4957;SDS011;2494;51.872;9.688;2023-02-20T14:01:00;25.43;;;16.87;;
4957;SDS011;2494;51.872;9.688;2023-02-20T14:03:53;24.00;;;16.63;;
4957;SDS011;2494;51.872;9.688;2023-02-20T14:06:49;26.13;;;18.00;;
4957;SDS011;2494;51.872;9.688;2023-02-20T14:09:35;26.37;;;16.33;;
4957;SDS011;2494;51.872;9.688;2023-02-20T14:12:20;31.87;;;18.00;;
4957;SDS011;2494;51.872;9.688;2023-02-20T14:15:06;24.77;;;17.63;;
4957;SDS011;2494;51.872;9.688;2023-02-20T14:17:54;26.77;;;19.03;;
4957;SDS011;2494;51.872;9.688;2023-02-20T14:20:45;28.23;;;19.53;;
4957;SDS011;2494;51.872;9.688;2023-02-20T14:23:32;26.70;;;18.33;;
4957;SDS011;2494;51.872;9.688;2023-02-20T14:26:20;24.53;;;16.40;;
4957;SDS011;2494;51.872;9.688;2023-02-20T14:29:06;37.03;;;21.90;;
4957;SDS011;2494;51.872;9.688;2023-02-20T14:32:02;31.27;;;17.10;;
4957;SDS011;2494;51.872;9.688;2023-02-20T14:34:50;27.47;;;18.10;;
4957;SDS011;2494;51.872;9.688;2023-02-20T14:37:38;29.43;;;20.33;;
4957;SDS011;2494;51.872;9.688;2023-02-20T14:40:26;32.93;;;20.37;;
4957;SDS011;2494;51.872;9.688;2023-02-20T14:43:15;28.30;;;18.67;;
4957;SDS011;2494;51.872;9.688;2023-02-20T14:46:01;25.73;;;17.97;;
4957;SDS011;2494;51.872;9.688;2023-02-20T14:48:47;27.30;;;18.37;;
4957;SDS011;2494;51.872;9.688;2023-02-20T14:51:32;35.63;;;21.00;;
4957;SDS011;2494;51.872;9.688;2023-02-20T14:54:18;24.57;;;17.50;;
4957;SDS011;2494;51.872;9.688;2023-02-20T14:57:05;24.33;;;18.33;;
4957;SDS011;2494;51.872;9.688;2023-02-20T14:59:50;28.90;;;18.97;;
4957;SDS011;2494;51.872;9.688;2023-02-20T15:02:35;33.77;;;19.80;;
4957;SDS011;2494;51.872;9.688;2023-02-20T15:05:26;27.93;;;17.90;;
4957;SDS011;2494;51.872;9.688;2023-02-20T15:08:17;29.80;;;20.00;;
4957;SDS011;2494;51.872;9.688;2023-02-20T15:11:07;31.43;;;18.57;;
4957;SDS011;2494;51.872;9.688;2023-02-20T15:13:54;31.37;;;18.97;;
4957;SDS011;2494;51.872;9.688;2023-02-20T15:16:40;28.07;;;17.13;;
4957;SDS011;2494;51.872;9.688;2023-02-20T15:19:31;27.33;;;19.03;;
4957;SDS011;2494;51.872;9.688;2023-02-20T15:22:24;29.87;;;17.20;;
4957;SDS011;2494;51.872;9.688;2023-02-20T15:25:14;24.83;;;16.63;;
4957;SDS011;2494;51.872;9.688;2023-02-20T15:28:10;25.73;;;16.30;;
4957;SDS011;2494;51.872;9.688;2023-02-20T15:31:05;25.67;;;16.80;;
4957;SDS011;2494;51.872;9.688;2023-02-20T15:33:51;25.27;;;17.23;;
4957;SDS011;2494;51.872;9.688;2023-02-20T15:36:37;27.13;;;16.60;;
4957;SDS011;2494;51.872;9.688;2023-02-20T15:39:22;24.17;;;15.97;;
4957;SDS011;2494;51.872;9.688;2023-02-20T15:42:08;26.97;;;15.43;;
4957;SDS011;2494;51.872;9.688;2023-02-20T15:44:54;19.37;;;15.47;;
4957;SDS011;2494;51.872;9.688;2023-02-20T15:47:40;23.17;;;15.13;;
4957;SDS011;2494;51.872;9.688;2023-02-20T15:50:26;26.13;;;15.70;;
4957;SDS011;2494;51.872;9.688;2023-02-20T15:53:11;20.63;;;15.00;;
4957;SDS011;2494;51.872;9.688;2023-02-20T15:55:59;22.23;;;14.70;;
4957;SDS011;2494;51.872;9.688;2023-02-20T15:58:45;19.10;;;13.70;;
4957;SDS011;2494;51.872;9.688;2023-02-20T16:01:30;23.70;;;14.93;;
4957;SDS011;2494;51.872;9.688;2023-02-20T16:04:20;23.20;;;13.83;;
4957;SDS011;2494;51.872;9.688;2023-02-20T16:07:05;28.40;;;14.67;;
4957;SDS011;2494;51.872;9.688;2023-02-20T16:09:50;17.50;;;12.50;;
4957;SDS011;2494;51.872;9.688;2023-02-20T16:12:35;21.07;;;14.80;;
4957;SDS011;2494;51.872;9.688;2023-02-20T16:15:22;21.93;;;14.73;;
4957;SDS011;2494;51.872;9.688;2023-02-20T16:18:07;20.60;;;15.40;;
4957;SDS011;2494;51.872;9.688;2023-02-20T16:20:54;19.73;;;13.33;;
4957;SDS011;2494;51.872;9.688;2023-02-20T16:23:39;19.73;;;13.57;;
4957;SDS011;2494;51.872;9.688;2023-02-20T16:26:26;18.63;;;12.30;;
4957;SDS011;2494;51.872;9.688;2023-02-20T16:29:14;16.97;;;12.20;;
4957;SDS011;2494;51.872;9.688;2023-02-20T16:35:04;20.17;;;14.57;;
4957;SDS011;2494;51.872;9.688;2023-02-20T16:37:50;20.27;;;13.20;;
4957;SDS011;2494;51.872;9.688;2023-02-20T16:40:36;17.53;;;12.30;;
4957;SDS011;2494;51.872;9.688;2023-02-20T16:43:21;20.30;;;14.50;;
4957;SDS011;2494;51.872;9.688;2023-02-20T16:46:07;18.10;;;12.57;;
4957;SDS011;2494;51.872;9.688;2023-02-20T16:48:53;16.17;;;11.60;;
4957;SDS011;2494;51.872;9.688;2023-02-20T16:51:38;17.67;;;12.93;;
4957;SDS011;2494;51.872;9.688;2023-02-20T16:54:24;20.27;;;13.53;;
4957;SDS011;2494;51.872;9.688;2023-02-20T16:57:09;19.03;;;13.90;;
4957;SDS011;2494;51.872;9.688;2023-02-20T16:59:55;18.30;;;13.93;;
4957;SDS011;2494;51.872;9.688;2023-02-20T17:02:41;20.30;;;13.57;;
4957;SDS011;2494;51.872;9.688;2023-02-20T17:05:28;21.37;;;14.57;;
4957;SDS011;2494;51.872;9.688;2023-02-20T17:08:13;24.57;;;15.97;;
4957;SDS011;2494;51.872;9.688;2023-02-20T17:11:00;17.93;;;13.57;;
4957;SDS011;2494;51.872;9.688;2023-02-20T17:13:45;20.27;;;12.70;;